Terminal Aerodrome Forecast
Issued by NWS Mt. Holly, NJ

Home | Current Version | Previous Version | Text Only | Print | Product List | Glossary On
Versions: 1 2 3 4 5 6 7 8 9 10 11 12 13 14 15 16 17
000
FTUS41 KPHI 032335
TAFRDG
TAF
KRDG 032335Z 0400/0424 16006KT P6SM BKN100
     FM040800 08004KT 6SM -SHRA SCT025 OVC080
     FM041600 05006KT P6SM BKN050
     FM042200 15005KT P6SM SCT050=

USA.gov is the U.S. government's official web portal to all federal, state and local government web resources and services.